createdAt,value
2018-07-12T00:02:04.236Z,15.00
2018-07-12T00:04:31.288Z,15.00
2018-07-12T00:06:58.439Z,15.13
2018-07-12T00:09:25.501Z,15.15
2018-07-12T00:11:52.592Z,14.98
2018-07-12T00:14:19.636Z,15.05
2018-07-12T00:16:47.031Z,15.16
2018-07-12T00:19:14.433Z,15.09
2018-07-12T00:21:41.537Z,15.08
2018-07-12T00:24:09.047Z,15.03
2018-07-12T00:26:36.151Z,14.88
2018-07-12T00:29:03.195Z,14.86
2018-07-12T00:31:30.332Z,14.86
2018-07-12T00:33:57.389Z,14.88
2018-07-12T00:36:24.906Z,15.04
2018-07-12T00:38:51.935Z,14.93
2018-07-12T00:41:19.064Z,14.89
2018-07-12T00:43:46.155Z,14.95
2018-07-12T00:46:13.206Z,14.96
2018-07-12T00:48:52.099Z,14.90
2018-07-12T00:51:43.915Z,14.95
2018-07-12T00:54:11.025Z,15.04
2018-07-12T00:56:38.128Z,14.94
2018-07-12T00:59:05.167Z,14.90
2018-07-12T01:01:32.677Z,15.06
2018-07-12T01:03:59.755Z,14.97
2018-07-12T01:06:26.872Z,15.00
2018-07-12T01:08:54.118Z,14.99
2018-07-12T01:11:21.173Z,14.97
2018-07-12T01:13:48.205Z,14.96
2018-07-12T01:16:15.251Z,14.99
2018-07-12T01:18:42.846Z,15.01
2018-07-12T01:21:09.919Z,15.03
2018-07-12T01:23:37.023Z,15.02
2018-07-12T01:26:04.442Z,14.91
2018-07-12T01:28:32.099Z,14.96
2018-07-12T01:30:59.272Z,15.01
2018-07-12T01:33:26.361Z,15.01
2018-07-12T01:35:53.402Z,14.93
2018-07-12T01:38:20.481Z,14.98
2018-07-12T01:40:47.543Z,14.81
2018-07-12T01:43:14.872Z,14.88
2018-07-12T01:45:48.438Z,14.96
2018-07-12T01:48:15.525Z,14.76
2018-07-12T01:50:42.608Z,14.80
2018-07-12T01:53:10.152Z,15.04
2018-07-12T01:55:37.262Z,15.06
2018-07-12T01:58:04.309Z,15.01
2018-07-12T02:00:31.456Z,15.08
2018-07-12T02:02:58.528Z,15.11
2018-07-12T02:05:25.650Z,15.00
2018-07-12T02:07:53.234Z,14.95
2018-07-12T02:13:18.979Z,14.90
2018-07-12T02:15:45.960Z,14.85
2018-07-12T02:18:13.075Z,14.91
2018-07-12T02:20:40.140Z,14.97
2018-07-12T02:23:07.233Z,14.96
2018-07-12T02:28:24.903Z,14.87
2018-07-12T02:30:51.944Z,14.83
2018-07-12T02:33:18.992Z,14.68
2018-07-12T02:35:46.086Z,14.64
2018-07-12T02:38:13.124Z,14.55
2018-07-12T02:40:40.656Z,14.47
2018-07-12T02:43:07.745Z,14.48
2018-07-12T02:45:40.911Z,14.51
2018-07-12T02:48:08.004Z,14.68
2018-07-12T02:50:35.095Z,14.69
2018-07-12T02:53:02.476Z,14.78
2018-07-12T02:55:29.517Z,14.83
2018-07-12T02:57:56.565Z,14.94
2018-07-12T03:00:23.690Z,14.94
2018-07-12T03:02:50.719Z,14.95
2018-07-12T03:05:17.939Z,14.95
2018-07-12T03:07:44.964Z,15.03
2018-07-12T03:10:12.003Z,15.14
2018-07-12T03:12:39.068Z,15.18
2018-07-12T03:15:06.105Z,15.14
2018-07-12T03:17:33.184Z,14.98
2018-07-12T03:20:00.421Z,15.20
2018-07-12T03:22:27.768Z,15.11
2018-07-12T03:24:54.860Z,15.15
2018-07-12T03:27:21.948Z,15.06
2018-07-12T03:29:49.028Z,15.19
2018-07-12T03:32:16.117Z,15.12
2018-07-12T03:34:43.154Z,15.08
2018-07-12T03:37:10.224Z,15.01
2018-07-12T03:39:37.250Z,15.02
2018-07-12T03:42:04.357Z,15.10
2018-07-12T03:44:31.442Z,15.03
2018-07-12T03:46:58.482Z,14.96
2018-07-12T03:49:25.551Z,15.09
2018-07-12T03:51:52.581Z,15.16
2018-07-12T03:54:20.145Z,15.12
2018-07-12T03:56:47.174Z,15.04
2018-07-12T03:59:14.252Z,15.10
2018-07-12T04:01:41.711Z,15.10
2018-07-12T04:04:08.739Z,15.23
2018-07-12T04:06:36.271Z,15.23
2018-07-12T04:09:04.461Z,15.14
2018-07-12T04:11:31.494Z,15.29
2018-07-12T04:13:58.705Z,15.27
2018-07-12T04:16:25.735Z,15.17
2018-07-12T04:18:53.307Z,15.41
2018-07-12T04:21:20.645Z,15.41
2018-07-12T04:23:47.676Z,15.47
2018-07-12T04:26:14.746Z,15.52
2018-07-12T04:28:48.328Z,15.49
2018-07-12T04:31:15.467Z,15.50
2018-07-12T04:33:42.510Z,15.44
2018-07-12T04:36:09.541Z,15.49
2018-07-12T04:38:36.609Z,15.50
2018-07-12T04:41:03.640Z,15.48
2018-07-12T04:43:30.766Z,15.52
2018-07-12T04:45:57.857Z,15.49
2018-07-12T04:48:24.928Z,15.61
2018-07-12T04:50:52.013Z,15.54
2018-07-12T04:53:19.054Z,15.61
2018-07-12T04:55:46.184Z,15.49
2018-07-12T04:58:13.322Z,15.54
2018-07-12T05:00:40.427Z,15.68
2018-07-12T05:03:07.474Z,15.74
2018-07-12T05:05:34.555Z,15.77
2018-07-12T05:08:02.054Z,15.83
2018-07-12T05:10:29.127Z,15.59
2018-07-12T05:12:56.165Z,15.82
2018-07-12T05:15:23.244Z,15.87
2018-07-12T05:17:50.300Z,15.94
2018-07-12T05:20:17.442Z,15.97
2018-07-12T05:22:45.093Z,15.97
2018-07-12T05:25:12.149Z,16.09
2018-07-12T05:27:39.232Z,16.07
2018-07-12T05:30:06.260Z,16.18
2018-07-12T05:32:33.354Z,16.18
2018-07-12T05:35:00.540Z,16.24
2018-07-12T05:37:29.458Z,16.28
2018-07-12T05:39:58.185Z,16.22
2018-07-12T05:42:31.515Z,16.29
2018-07-12T05:45:00.444Z,16.36
2018-07-12T05:47:29.509Z,16.57
2018-07-12T05:49:58.420Z,16.44
2018-07-12T05:52:27.150Z,16.48
2018-07-12T05:54:56.082Z,16.51
2018-07-12T05:57:25.052Z,16.55
2018-07-12T05:59:59.705Z,16.57
2018-07-12T06:02:28.976Z,16.59
2018-07-12T06:04:57.853Z,16.67
2018-07-12T06:07:30.828Z,16.85
2018-07-12T06:09:59.931Z,16.70
2018-07-12T06:12:28.877Z,16.82
2018-07-12T06:14:57.667Z,16.97
2018-07-12T06:17:26.611Z,16.90
2018-07-12T06:19:55.490Z,17.15
2018-07-12T06:22:24.408Z,17.16
2018-07-12T06:24:53.488Z,17.35
2018-07-12T06:27:22.388Z,17.36
2018-07-12T06:29:51.360Z,17.64
2018-07-12T06:32:20.575Z,17.87
2018-07-12T06:34:49.520Z,17.95
2018-07-12T06:37:18.512Z,18.03
2018-07-12T06:39:47.315Z,18.00
2018-07-12T06:42:16.273Z,18.16
2018-07-12T06:44:45.617Z,18.44
2018-07-12T06:47:14.347Z,19.11
2018-07-12T06:49:43.249Z,19.52
2018-07-12T06:52:12.215Z,20.23
2018-07-12T06:54:41.106Z,20.52
2018-07-12T06:57:09.869Z,20.32
2018-07-12T06:59:38.788Z,20.38
2018-07-12T07:02:07.852Z,20.36
2018-07-12T07:04:36.728Z,20.43
2018-07-12T07:07:05.852Z,20.06
2018-07-12T07:09:34.761Z,20.20
2018-07-12T07:12:03.701Z,20.51
2018-07-12T07:14:32.656Z,20.20
2018-07-12T07:17:01.564Z,20.86
2018-07-12T07:19:30.553Z,21.07
2018-07-12T07:21:59.459Z,21.19
2018-07-12T07:24:28.462Z,21.55
2018-07-12T07:26:57.413Z,21.60
2018-07-12T07:29:26.127Z,21.48
2018-07-12T07:31:55.089Z,21.52
2018-07-12T07:34:23.981Z,21.54
2018-07-12T07:36:52.721Z,21.81
2018-07-12T07:39:21.751Z,21.80
2018-07-12T07:41:50.625Z,22.11
2018-07-12T07:44:19.555Z,22.25
2018-07-12T07:46:48.466Z,21.73
2018-07-12T07:49:17.464Z,22.06
2018-07-12T07:51:46.180Z,22.01
2018-07-12T07:54:15.379Z,22.33
2018-07-12T07:56:44.186Z,22.17
2018-07-12T07:59:13.052Z,22.31
2018-07-12T08:01:41.979Z,22.78
2018-07-12T08:04:10.848Z,23.06
2018-07-12T08:06:39.782Z,23.12
2018-07-12T08:09:08.787Z,23.22
2018-07-12T08:11:37.521Z,23.24
2018-07-12T08:14:06.460Z,23.24
2018-07-12T08:16:35.176Z,23.52
2018-07-12T08:19:04.165Z,23.44
2018-07-12T08:21:33.121Z,23.54
2018-07-12T08:24:02.037Z,24.16
2018-07-12T08:26:30.915Z,24.07
2018-07-12T08:28:59.706Z,23.98
2018-07-12T08:31:28.606Z,23.46
2018-07-12T08:33:57.550Z,23.81
2018-07-12T08:36:26.502Z,23.76
2018-07-12T08:38:55.275Z,23.69
2018-07-12T08:41:24.195Z,24.26
2018-07-12T08:43:53.140Z,24.19
2018-07-12T08:46:22.148Z,24.90
2018-07-12T08:48:51.072Z,24.76
2018-07-12T08:51:19.987Z,25.05
2018-07-12T08:53:48.917Z,24.60
2018-07-12T08:56:17.793Z,24.86
2018-07-12T08:58:46.829Z,25.06
2018-07-12T09:01:15.530Z,25.08
2018-07-12T09:03:44.227Z,24.86
2018-07-12T09:06:13.165Z,25.21
2018-07-12T09:08:42.185Z,25.74
2018-07-12T09:11:11.589Z,25.43
2018-07-12T09:13:40.645Z,26.02
2018-07-12T09:16:09.634Z,26.16
2018-07-12T09:18:38.568Z,26.32
2018-07-12T09:21:07.472Z,25.58
2018-07-12T09:23:36.560Z,25.91
2018-07-12T09:26:05.496Z,26.09
2018-07-12T09:28:34.384Z,25.59
2018-07-12T09:31:03.316Z,25.85
2018-07-12T09:33:32.187Z,26.01
2018-07-12T09:36:01.002Z,26.29
2018-07-12T09:38:50.499Z,25.41
2018-07-12T09:41:20.131Z,25.27
2018-07-12T09:43:49.603Z,25.70
2018-07-12T09:46:18.701Z,26.01
2018-07-12T09:48:48.950Z,26.22
2018-07-12T09:51:17.783Z,26.05
2018-07-12T09:53:47.383Z,25.19
2018-07-12T09:56:16.307Z,25.41
2018-07-12T09:58:45.319Z,25.13
2018-07-12T10:01:20.230Z,25.46
2018-07-12T10:03:51.251Z,25.74
2018-07-12T10:06:25.558Z,25.88
2018-07-12T10:08:55.981Z,24.90
2018-07-12T10:11:30.194Z,24.91
2018-07-12T10:14:04.643Z,25.13
2018-07-12T10:16:38.902Z,25.75
2018-07-12T10:19:07.715Z,26.05
2018-07-12T10:21:36.536Z,25.82
2018-07-12T10:24:05.370Z,25.96
2018-07-12T10:26:34.231Z,26.19
2018-07-12T10:29:03.024Z,26.51
2018-07-12T10:31:31.670Z,26.26
2018-07-12T10:34:00.500Z,25.93
2018-07-12T10:36:29.273Z,26.73
2018-07-12T10:38:58.395Z,26.91
2018-07-12T10:41:27.178Z,26.92
2018-07-12T10:43:55.885Z,26.32
2018-07-12T10:46:24.703Z,26.00
2018-07-12T10:48:53.492Z,26.02
2018-07-12T10:51:22.139Z,26.18
2018-07-12T10:53:50.886Z,26.04
2018-07-12T10:56:19.738Z,25.59
2018-07-12T10:58:48.701Z,25.66
2018-07-12T11:01:17.440Z,25.47
2018-07-12T11:03:46.297Z,25.31
2018-07-12T11:06:15.075Z,25.19
2018-07-12T11:08:43.717Z,24.91
2018-07-12T11:11:12.663Z,24.64
2018-07-12T11:13:49.357Z,24.88
2018-07-12T11:16:18.191Z,24.90
2018-07-12T11:18:47.388Z,25.13
2018-07-12T11:21:16.238Z,25.13
2018-07-12T11:23:45.217Z,25.19
2018-07-12T11:26:13.994Z,25.64
2018-07-12T11:28:43.155Z,26.15
2018-07-12T11:31:12.024Z,26.34
2018-07-12T11:33:42.732Z,26.64
2018-07-12T11:36:11.930Z,26.51
2018-07-12T11:38:42.056Z,26.74
2018-07-12T11:41:11.221Z,26.41
2018-07-12T11:43:40.085Z,26.72
2018-07-12T11:46:09.954Z,26.53
2018-07-12T11:48:39.936Z,27.21
2018-07-12T11:51:08.829Z,27.07
2018-07-12T11:53:37.702Z,26.68
2018-07-12T11:56:06.650Z,26.38
2018-07-12T11:58:35.463Z,26.13
2018-07-12T12:01:04.347Z,25.98
2018-07-12T12:03:33.241Z,25.90
2018-07-12T12:06:02.071Z,25.88
2018-07-12T12:08:30.990Z,25.66
2018-07-12T12:10:59.806Z,25.67
2018-07-12T12:13:28.626Z,25.62
2018-07-12T12:15:57.431Z,25.56
2018-07-12T12:18:26.244Z,25.49
2018-07-12T12:20:55.070Z,25.54
2018-07-12T12:23:23.894Z,25.32
2018-07-12T12:25:52.717Z,25.27
2018-07-12T12:28:21.825Z,25.26
2018-07-12T12:30:50.597Z,25.29
2018-07-12T12:33:19.455Z,25.29
2018-07-12T12:35:48.257Z,25.54
2018-07-12T12:38:17.080Z,25.79
2018-07-12T12:40:45.886Z,25.74
2018-07-12T12:43:14.648Z,25.50
2018-07-12T12:45:49.508Z,25.40
2018-07-12T12:48:18.303Z,25.22
2018-07-12T12:50:47.543Z,25.00
2018-07-12T12:53:16.287Z,25.00
2018-07-12T12:55:45.136Z,24.92
2018-07-12T12:58:13.952Z,24.95
2018-07-12T13:00:42.755Z,26.04
2018-07-12T13:03:11.555Z,26.16
2018-07-12T13:05:40.343Z,25.56
2018-07-12T13:08:09.276Z,25.32
2018-07-12T13:10:38.016Z,25.30
2018-07-12T13:13:06.980Z,25.64
2018-07-12T13:15:35.824Z,25.89
2018-07-12T13:18:04.670Z,25.77
2018-07-12T13:20:33.540Z,25.57
2018-07-12T13:23:02.363Z,25.55
2018-07-12T13:25:31.199Z,25.40
2018-07-12T13:28:00.040Z,25.97
2018-07-12T13:30:28.848Z,26.22
2018-07-12T13:32:58.219Z,26.49
2018-07-12T13:35:27.005Z,26.28
2018-07-12T13:37:55.765Z,25.78
2018-07-12T13:40:24.416Z,26.37
2018-07-12T13:42:53.335Z,26.82
2018-07-12T13:45:28.856Z,26.70
2018-07-12T13:47:57.656Z,26.79
2018-07-12T13:50:26.463Z,26.18
2018-07-12T13:52:55.295Z,26.74
2018-07-12T13:55:24.152Z,26.96
2018-07-12T13:57:53.013Z,27.21
2018-07-12T14:00:21.844Z,27.25
2018-07-12T14:02:50.913Z,27.52
2018-07-12T14:05:19.956Z,27.52
2018-07-12T14:07:48.758Z,27.45
2018-07-12T14:10:17.641Z,27.46
2018-07-12T14:12:46.658Z,27.53
2018-07-12T14:15:15.462Z,27.62
2018-07-12T14:17:44.255Z,27.11
2018-07-12T14:20:13.406Z,27.53
2018-07-12T14:22:42.243Z,26.99
2018-07-12T14:25:11.034Z,26.86
2018-07-12T14:27:39.812Z,27.33
2018-07-12T14:30:08.631Z,26.89
2018-07-12T14:32:37.452Z,26.93
2018-07-12T14:35:06.404Z,26.87
2018-07-12T14:37:35.211Z,26.67
2018-07-12T14:40:04.015Z,26.90
2018-07-12T14:42:32.672Z,26.72
2018-07-12T14:45:01.559Z,26.68
2018-07-12T14:47:30.384Z,26.64
2018-07-12T14:49:59.040Z,26.48
2018-07-12T14:52:27.801Z,26.57
2018-07-12T14:54:56.567Z,26.35
2018-07-12T14:57:25.288Z,26.38
2018-07-12T14:59:54.056Z,26.10
2018-07-12T15:02:22.895Z,26.22
2018-07-12T15:04:51.691Z,25.64
2018-07-12T15:07:20.455Z,25.97
2018-07-12T15:09:49.319Z,25.69
2018-07-12T15:12:18.670Z,25.79
2018-07-12T15:14:47.508Z,25.99
2018-07-12T15:17:16.400Z,26.40
2018-07-12T15:19:45.180Z,26.61
2018-07-12T15:22:14.124Z,26.45
2018-07-12T15:24:43.004Z,26.16
2018-07-12T15:27:11.817Z,26.03
2018-07-12T15:29:40.620Z,26.05
2018-07-12T15:32:09.829Z,25.71
2018-07-12T15:34:38.627Z,25.59
2018-07-12T15:37:07.501Z,25.60
2018-07-12T15:39:36.243Z,25.26
2018-07-12T15:42:05.100Z,25.64
2018-07-12T15:44:33.690Z,25.56
2018-07-12T15:47:02.538Z,25.43
2018-07-12T15:49:31.389Z,25.26
2018-07-12T15:52:00.163Z,25.32
2018-07-12T15:54:28.941Z,25.18
2018-07-12T15:56:57.772Z,25.39
2018-07-12T15:59:26.578Z,25.39
2018-07-12T16:01:55.444Z,25.01
2018-07-12T16:04:24.010Z,25.09
2018-07-12T16:06:53.300Z,24.96
2018-07-12T16:09:21.927Z,25.13
2018-07-12T16:11:50.723Z,25.38
2018-07-12T16:14:19.527Z,25.60
2018-07-12T16:16:48.342Z,25.30
2018-07-12T16:19:17.099Z,24.90
2018-07-12T16:21:46.191Z,25.29
2018-07-12T16:24:15.052Z,25.64
2018-07-12T16:26:43.884Z,25.49
2018-07-12T16:29:13.896Z,25.07
2018-07-12T16:31:42.785Z,24.73
2018-07-12T16:34:11.580Z,24.74
2018-07-12T16:36:40.474Z,24.79
2018-07-12T16:39:09.314Z,24.97
2018-07-12T16:41:38.112Z,24.81
2018-07-12T16:44:06.974Z,24.71
2018-07-12T16:46:35.962Z,24.18
2018-07-12T16:49:04.871Z,24.35
2018-07-12T16:51:33.640Z,24.18
2018-07-12T16:54:02.472Z,24.13
2018-07-12T16:56:31.286Z,23.89
2018-07-12T16:59:00.132Z,23.77
2018-07-12T17:01:28.994Z,23.79
2018-07-12T17:03:57.787Z,23.52
2018-07-12T17:06:26.637Z,23.64
2018-07-12T17:08:55.432Z,23.66
2018-07-12T17:11:24.263Z,23.45
2018-07-12T17:13:53.192Z,23.51
2018-07-12T17:16:22.285Z,23.61
2018-07-12T17:18:51.060Z,23.35
2018-07-12T17:21:19.915Z,23.13
2018-07-12T17:23:48.798Z,23.28
2018-07-12T17:26:17.683Z,23.43
2018-07-12T17:28:46.424Z,23.17
2018-07-12T17:31:15.126Z,22.92
2018-07-12T17:33:43.958Z,22.99
2018-07-12T17:36:12.752Z,22.81
2018-07-12T17:38:41.906Z,22.96
2018-07-12T17:41:10.801Z,22.68
2018-07-12T17:43:39.524Z,22.91
2018-07-12T17:46:08.390Z,22.80
2018-07-12T17:48:37.180Z,22.81
2018-07-12T17:51:06.167Z,23.07
2018-07-12T17:53:34.960Z,23.14
2018-07-12T17:56:03.777Z,22.30
2018-07-12T17:58:32.602Z,22.81
2018-07-12T18:01:01.464Z,22.93
2018-07-12T18:03:30.376Z,22.91
2018-07-12T18:05:59.194Z,22.47
2018-07-12T18:08:27.979Z,22.40
2018-07-12T18:10:56.638Z,22.36
2018-07-12T18:13:25.456Z,22.09
2018-07-12T18:15:54.406Z,21.85
2018-07-12T18:18:23.140Z,21.95
2018-07-12T18:20:51.754Z,21.81
2018-07-12T18:23:20.621Z,21.77
2018-07-12T18:25:49.216Z,21.70
2018-07-12T18:28:18.129Z,21.60
2018-07-12T18:30:47.001Z,21.65
2018-07-12T18:33:15.936Z,21.59
2018-07-12T18:35:45.146Z,21.38
2018-07-12T18:38:13.955Z,21.25
2018-07-12T18:40:42.771Z,21.16
2018-07-12T18:43:11.604Z,21.23
2018-07-12T18:45:46.348Z,20.99
2018-07-12T18:48:15.161Z,20.90
2018-07-12T18:50:44.078Z,20.94
2018-07-12T18:53:12.877Z,20.70
2018-07-12T18:55:41.732Z,20.79
2018-07-12T18:58:10.521Z,20.45
2018-07-12T19:00:39.432Z,20.18
2018-07-12T19:03:08.284Z,19.97
2018-07-12T19:05:37.090Z,19.86
2018-07-12T19:08:05.969Z,19.61
2018-07-12T19:10:35.899Z,19.38
2018-07-12T19:13:04.934Z,19.31
2018-07-12T19:15:33.786Z,19.20
2018-07-12T19:18:02.643Z,19.04
2018-07-12T19:20:31.444Z,19.06
2018-07-12T19:23:00.354Z,18.92
2018-07-12T19:25:29.190Z,18.96
2018-07-12T19:27:58.023Z,18.95
2018-07-12T19:30:26.883Z,18.92
2018-07-12T19:32:55.690Z,18.83
2018-07-12T19:35:24.732Z,18.73
2018-07-12T19:37:53.390Z,18.68
2018-07-12T19:40:22.356Z,18.66
2018-07-12T19:42:51.259Z,18.59
2018-07-12T19:45:26.100Z,18.35
2018-07-12T19:47:54.927Z,18.30
2018-07-12T19:50:23.841Z,18.17
2018-07-12T19:52:52.705Z,18.21
2018-07-12T19:55:21.393Z,18.16
2018-07-12T19:57:50.084Z,18.03
2018-07-12T20:00:19.362Z,17.97
2018-07-12T20:02:48.228Z,17.96
2018-07-12T20:05:17.092Z,17.76
2018-07-12T20:07:45.863Z,17.71
2018-07-12T20:10:14.631Z,17.73
2018-07-12T20:12:43.378Z,17.61
2018-07-12T20:15:12.311Z,17.48
2018-07-12T20:17:41.095Z,17.26
2018-07-12T20:20:09.955Z,17.36
2018-07-12T20:22:38.748Z,17.41
2018-07-12T20:25:07.624Z,17.38
2018-07-12T20:27:36.486Z,17.37
2018-07-12T20:30:05.713Z,17.32
2018-07-12T20:32:34.544Z,17.17
2018-07-12T20:35:03.403Z,17.13
2018-07-12T20:37:32.256Z,16.94
2018-07-12T20:40:01.190Z,16.86
2018-07-12T20:42:30.016Z,16.78
2018-07-12T20:44:58.851Z,16.89
2018-07-12T20:47:27.964Z,16.72
2018-07-12T20:49:56.747Z,16.74
2018-07-12T20:52:25.675Z,16.77
2018-07-12T20:54:54.543Z,16.81
2018-07-12T20:57:23.671Z,16.83
2018-07-12T20:59:52.519Z,16.77
2018-07-12T21:02:21.371Z,16.81
2018-07-12T21:04:50.523Z,16.78
2018-07-12T21:07:19.939Z,16.80
2018-07-12T21:09:48.802Z,16.84
2018-07-12T21:12:17.613Z,16.94
2018-07-12T21:14:46.619Z,16.91
2018-07-12T21:17:15.528Z,16.91
2018-07-12T21:19:44.293Z,16.67
2018-07-12T21:22:13.172Z,16.93
2018-07-12T21:24:41.985Z,16.78
2018-07-12T21:27:10.831Z,16.85
2018-07-12T21:29:39.745Z,16.90
2018-07-12T21:32:08.677Z,16.79
2018-07-12T21:34:37.490Z,16.95
2018-07-12T21:37:06.365Z,16.77
2018-07-12T21:39:35.237Z,16.95
2018-07-12T21:42:04.101Z,17.05
2018-07-12T21:44:32.969Z,16.92
2018-07-12T21:47:01.751Z,16.88
2018-07-12T21:49:30.567Z,16.73
2018-07-12T21:51:59.478Z,16.83
2018-07-12T21:54:28.353Z,17.09
2018-07-12T21:56:57.152Z,17.03
2018-07-12T21:59:26.016Z,16.89
2018-07-12T22:01:54.928Z,16.87
2018-07-12T22:04:23.805Z,16.99
2018-07-12T22:07:24.726Z,16.83
2018-07-12T22:09:53.557Z,16.69
2018-07-12T22:12:22.351Z,16.95
2018-07-12T22:14:51.187Z,16.73
2018-07-12T22:17:20.069Z,16.79
2018-07-12T22:19:48.884Z,16.75
2018-07-12T22:22:17.541Z,16.78
2018-07-12T22:24:46.587Z,16.77
2018-07-12T22:27:15.394Z,16.83
2018-07-12T22:29:44.226Z,16.87
2018-07-12T22:32:13.264Z,16.85
2018-07-12T22:34:42.216Z,16.88
2018-07-12T22:37:11.011Z,16.96
2018-07-12T22:39:39.799Z,16.91
2018-07-12T22:42:08.662Z,16.70
2018-07-12T22:44:37.423Z,16.91
2018-07-12T22:47:06.264Z,16.96
2018-07-12T22:49:35.017Z,17.02
2018-07-12T22:52:03.947Z,16.96
2018-07-12T22:54:33.132Z,16.90
2018-07-12T22:57:01.990Z,16.77
2018-07-12T22:59:30.825Z,16.79
2018-07-12T23:01:59.715Z,16.89
2018-07-12T23:04:28.524Z,16.93
2018-07-12T23:06:57.561Z,16.83
2018-07-12T23:09:26.236Z,16.73
2018-07-12T23:11:55.059Z,16.78
2018-07-12T23:14:24.068Z,16.85
2018-07-12T23:16:53.154Z,16.84
2018-07-12T23:19:22.026Z,16.92
2018-07-12T23:21:51.052Z,17.02
2018-07-12T23:24:19.855Z,16.94
2018-07-12T23:26:48.722Z,16.98
2018-07-12T23:29:17.484Z,17.00
2018-07-12T23:31:46.388Z,17.02
2018-07-12T23:34:15.202Z,16.81
2018-07-12T23:36:44.121Z,16.70
2018-07-12T23:39:13.400Z,16.74
2018-07-12T23:41:42.264Z,16.79
2018-07-12T23:44:10.966Z,16.74
2018-07-12T23:46:39.763Z,16.61
2018-07-12T23:49:08.608Z,16.80
2018-07-12T23:51:37.475Z,16.86
2018-07-12T23:54:06.581Z,16.74
2018-07-12T23:56:35.455Z,16.87
2018-07-12T23:59:04.539Z,16.88
